Terminal Aerodrome Forecast
Issued by NWS

Home | Current Version | Previous Version | Text Only | Print | Product List | Glossary On
Versions: 1 2 3 4 5 6 7 8 9 10 11 12 13 14 15 16 17 18 19 20 21 22 23 24 25 26 27 28 29 30 31 32 33 34 35 36 37 38 39 40 41 42
252
FTPQ31 PGUM 232335
TAFGUM
TAF

TAF
PTPN 232335Z 2400/2424 08011KT 6SM -SHRA BKN017 BKN120
      TEMPO 2401/2405 08016KT 3SM SHRA BKN014=

USA.gov is the U.S. government's official web portal to all federal, state and local government web resources and services.